createdAt,value
2018-08-19T00:02:11.961Z,3.67
2018-08-19T00:04:39.416Z,3.80
2018-08-19T00:07:07.058Z,2.77
2018-08-19T00:09:34.923Z,3.87
2018-08-19T00:12:02.777Z,3.10
2018-08-19T00:14:32.351Z,3.80
2018-08-19T00:17:00.957Z,3.73
2018-08-19T00:19:28.801Z,3.77
2018-08-19T00:21:56.452Z,3.07
2018-08-19T00:24:24.272Z,4.10
2018-08-19T00:26:51.747Z,3.33
2018-08-19T00:29:24.672Z,4.17
2018-08-19T00:31:53.282Z,3.10
2018-08-19T00:34:26.435Z,3.57
2018-08-19T00:36:53.929Z,4.00
2018-08-19T00:39:21.536Z,3.97
2018-08-19T00:41:49.060Z,3.47
2018-08-19T00:44:16.639Z,3.00
2018-08-19T00:46:44.173Z,2.83
2018-08-19T00:49:11.704Z,6.40
2018-08-19T00:51:43.775Z,9.27
2018-08-19T00:54:12.242Z,7.27
2018-08-19T00:56:39.772Z,4.07
2018-08-19T00:59:08.932Z,6.80
2018-08-19T01:01:36.584Z,6.57
2018-08-19T01:04:06.932Z,5.57
2018-08-19T01:06:40.173Z,3.20
2018-08-19T01:09:07.899Z,3.63
2018-08-19T01:11:36.060Z,3.63
2018-08-19T01:14:07.457Z,3.40
2018-08-19T01:16:34.861Z,4.00
2018-08-19T01:19:02.720Z,4.90
2018-08-19T01:21:31.576Z,4.20
2018-08-19T01:24:00.220Z,3.30
2018-08-19T01:26:31.933Z,3.87
2018-08-19T01:28:59.393Z,4.37
2018-08-19T01:31:27.010Z,3.53
2018-08-19T01:33:54.598Z,4.27
2018-08-19T01:36:23.275Z,3.87
2018-08-19T01:38:50.917Z,5.17
2018-08-19T01:41:18.356Z,5.40
2018-08-19T01:44:06.303Z,7.10
2018-08-19T01:46:37.933Z,3.50
2018-08-19T01:49:07.145Z,2.60
2018-08-19T01:51:36.790Z,3.10
2018-08-19T01:54:10.090Z,3.10
2018-08-19T01:56:37.961Z,3.00
2018-08-19T01:59:05.874Z,3.60
2018-08-19T02:01:45.679Z,2.80
2018-08-19T02:04:13.494Z,4.03
2018-08-19T02:06:41.943Z,2.87
2018-08-19T02:09:11.308Z,3.17
2018-08-19T02:11:39.250Z,3.50
2018-08-19T02:14:06.838Z,2.90
2018-08-19T02:16:34.395Z,2.60
2018-08-19T02:19:01.811Z,2.57
2018-08-19T02:21:29.192Z,2.70
2018-08-19T02:23:56.693Z,3.30
2018-08-19T02:26:28.589Z,2.73
2018-08-19T02:28:56.182Z,2.43
2018-08-19T02:31:23.976Z,2.87
2018-08-19T02:33:51.652Z,4.00
2018-08-19T02:36:19.139Z,3.53
2018-08-19T02:38:46.665Z,3.17
2018-08-19T02:41:14.270Z,2.47
2018-08-19T02:43:59.561Z,3.30
2018-08-19T02:46:27.431Z,2.67
2018-08-19T02:48:54.952Z,2.40
2018-08-19T02:51:22.511Z,2.40
2018-08-19T02:53:50.937Z,3.43
2018-08-19T02:56:18.947Z,2.90
2018-08-19T02:58:47.010Z,3.40
2018-08-19T03:01:15.489Z,2.77
2018-08-19T03:03:42.907Z,2.40
2018-08-19T03:06:10.700Z,2.60
2018-08-19T03:08:44.108Z,2.90
2018-08-19T03:11:12.503Z,2.47
2018-08-19T03:13:40.036Z,3.03
2018-08-19T03:16:07.457Z,3.20
2018-08-19T03:18:34.932Z,2.97
2018-08-19T03:21:02.550Z,2.50
2018-08-19T03:23:29.983Z,3.50
2018-08-19T03:25:58.621Z,2.23
2018-08-19T03:28:26.137Z,2.60
2018-08-19T03:30:59.152Z,2.40
2018-08-19T03:33:26.662Z,2.57
2018-08-19T03:35:54.105Z,3.17
2018-08-19T03:38:24.778Z,2.83
2018-08-19T03:40:53.922Z,3.53
2018-08-19T03:43:21.473Z,2.40
2018-08-19T03:45:48.950Z,4.10
2018-08-19T03:48:16.500Z,2.77
2018-08-19T03:50:43.924Z,2.43
2018-08-19T03:53:12.612Z,3.90
2018-08-19T03:55:40.181Z,2.47
2018-08-19T03:58:08.971Z,2.90
2018-08-19T04:00:40.164Z,4.40
2018-08-19T04:03:20.616Z,3.77
2018-08-19T04:07:14.616Z,3.40
2018-08-19T04:09:42.052Z,3.30
2018-08-19T04:12:11.743Z,3.33
2018-08-19T04:14:39.152Z,3.30
2018-08-19T04:17:07.480Z,5.57
2018-08-19T04:19:35.016Z,4.80
2018-08-19T04:22:03.953Z,3.33
2018-08-19T04:24:32.012Z,2.90
2018-08-19T04:27:04.530Z,3.37
2018-08-19T04:29:32.794Z,2.60
2018-08-19T04:32:00.362Z,3.77
2018-08-19T04:34:28.111Z,2.90
2018-08-19T04:36:55.608Z,3.00
2018-08-19T04:39:23.088Z,3.60
2018-08-19T04:41:50.511Z,3.10
2018-08-19T04:44:18.048Z,2.77
2018-08-19T04:46:45.618Z,2.93
2018-08-19T04:49:14.343Z,3.40
2018-08-19T04:51:41.844Z,3.37
2018-08-19T04:54:09.244Z,3.07
2018-08-19T04:56:37.689Z,3.10
2018-08-19T04:59:05.753Z,2.80
2018-08-19T05:01:33.272Z,3.20
2018-08-19T05:04:00.780Z,2.80
2018-08-19T05:06:28.295Z,3.30
2018-08-19T05:08:57.453Z,2.80
2018-08-19T05:11:25.070Z,3.73
2018-08-19T05:13:52.552Z,3.50
2018-08-19T05:16:20.052Z,2.30
2018-08-19T05:18:53.063Z,3.17
2018-08-19T05:21:21.205Z,3.10
2018-08-19T05:23:48.713Z,2.97
2018-08-19T05:26:16.237Z,3.07
2018-08-19T05:29:14.496Z,2.70
2018-08-19T05:31:48.225Z,2.70
2018-08-19T05:34:21.225Z,3.17
2018-08-19T05:36:50.251Z,2.90
2018-08-19T05:39:17.830Z,2.33
2018-08-19T05:41:55.443Z,3.10
2018-08-19T05:44:22.999Z,3.00
2018-08-19T05:46:50.577Z,2.80
2018-08-19T05:49:18.376Z,2.83
2018-08-19T05:51:45.963Z,3.33
2018-08-19T05:54:13.419Z,3.60
2018-08-19T05:56:40.994Z,3.23
2018-08-19T05:59:08.525Z,3.20
2018-08-19T06:01:36.193Z,3.17
2018-08-19T06:04:03.755Z,2.70
2018-08-19T06:06:31.382Z,2.77
2018-08-19T06:08:58.919Z,3.23
2018-08-19T06:11:26.540Z,2.80
2018-08-19T06:13:54.228Z,2.83
2018-08-19T06:16:21.813Z,2.70
2018-08-19T06:18:49.409Z,2.67
2018-08-19T06:21:16.975Z,3.20
2018-08-19T06:23:44.513Z,3.07
2018-08-19T06:26:14.558Z,2.63
2018-08-19T06:28:42.133Z,3.07
2018-08-19T06:31:09.821Z,3.40
2018-08-19T06:33:37.284Z,2.87
2018-08-19T06:36:04.843Z,3.23
2018-08-19T06:38:32.401Z,2.73
2018-08-19T06:40:59.832Z,2.70
2018-08-19T06:43:27.385Z,3.07
2018-08-19T06:45:54.916Z,3.70
2018-08-19T06:48:22.527Z,2.47
2018-08-19T06:50:50.165Z,3.63
2018-08-19T06:53:23.191Z,2.90
2018-08-19T06:55:50.567Z,3.00
2018-08-19T06:58:18.101Z,3.27
2018-08-19T07:00:45.762Z,4.17
2018-08-19T07:03:13.366Z,3.13
2018-08-19T07:05:40.796Z,3.30
2018-08-19T07:08:08.363Z,4.10
2018-08-19T07:10:40.294Z,3.80
2018-08-19T07:13:10.205Z,4.00
2018-08-19T07:15:38.930Z,4.57
2018-08-19T07:18:07.095Z,3.10
2018-08-19T07:20:35.517Z,4.53
2018-08-19T07:23:03.118Z,2.97
2018-08-19T07:25:30.699Z,3.07
2018-08-19T07:27:58.366Z,3.03
2018-08-19T07:30:25.952Z,3.30
2018-08-19T07:32:53.610Z,3.10
2018-08-19T07:35:21.130Z,3.50
2018-08-19T07:37:48.600Z,2.80
2018-08-19T07:40:17.120Z,3.20
2018-08-19T07:42:44.625Z,3.47
2018-08-19T07:45:12.276Z,3.90
2018-08-19T07:47:39.916Z,3.00
2018-08-19T07:50:08.383Z,2.60
2018-08-19T07:52:35.932Z,3.10
2018-08-19T07:55:03.977Z,3.57
2018-08-19T07:57:31.624Z,3.17
2018-08-19T07:59:59.082Z,3.40
2018-08-19T08:02:30.472Z,2.90
2018-08-19T08:04:58.117Z,2.60
2018-08-19T08:07:28.596Z,3.40
2018-08-19T08:09:57.403Z,4.20
2018-08-19T08:12:28.732Z,2.97
2018-08-19T08:14:56.397Z,2.83
2018-08-19T08:17:25.195Z,3.40
2018-08-19T08:20:04.271Z,3.10
2018-08-19T08:22:32.872Z,4.40
2018-08-19T08:25:00.604Z,2.83
2018-08-19T08:27:28.965Z,3.53
2018-08-19T08:29:56.532Z,3.63
2018-08-19T08:32:24.219Z,3.17
2018-08-19T08:34:52.072Z,3.00
2018-08-19T08:37:19.727Z,4.43
2018-08-19T08:39:50.170Z,4.27
2018-08-19T08:42:17.684Z,3.43
2018-08-19T08:44:45.327Z,3.53
2018-08-19T08:47:12.936Z,3.47
2018-08-19T08:49:47.001Z,2.83
2018-08-19T08:52:21.057Z,3.00
2018-08-19T08:54:51.526Z,2.70
2018-08-19T08:57:20.035Z,2.80
2018-08-19T08:59:47.786Z,3.00
2018-08-19T09:02:15.327Z,3.80
2018-08-19T09:04:42.881Z,3.53
2018-08-19T09:07:10.842Z,3.83
2018-08-19T09:09:40.001Z,3.40
2018-08-19T09:12:07.510Z,3.27
2018-08-19T09:14:35.063Z,4.20
2018-08-19T09:17:02.660Z,4.57
2018-08-19T09:19:30.273Z,3.40
2018-08-19T09:21:57.910Z,3.60
2018-08-19T09:24:25.402Z,3.97
2018-08-19T09:26:53.197Z,3.80
2018-08-19T09:29:20.685Z,3.30
2018-08-19T09:31:48.256Z,3.77
2018-08-19T09:34:16.428Z,4.20
2018-08-19T09:36:44.021Z,4.17
2018-08-19T09:39:11.786Z,4.27
2018-08-19T09:41:39.305Z,3.77
2018-08-19T09:44:06.963Z,3.80
2018-08-19T09:46:34.515Z,5.50
2018-08-19T09:49:02.095Z,3.80
2018-08-19T09:51:29.656Z,3.80
2018-08-19T09:53:57.191Z,4.20
2018-08-19T09:56:30.305Z,3.40
2018-08-19T09:59:03.494Z,4.30
2018-08-19T10:01:36.867Z,3.90
2018-08-19T10:04:38.923Z,2.97
2018-08-19T10:07:11.370Z,2.93
2018-08-19T10:09:39.166Z,3.90
2018-08-19T10:12:06.956Z,3.20
2018-08-19T10:14:34.481Z,4.03
2018-08-19T10:17:02.056Z,2.83
2018-08-19T10:19:29.654Z,2.93
2018-08-19T10:21:57.355Z,3.10
2018-08-19T10:24:28.555Z,3.40
2018-08-19T10:26:56.709Z,3.10
2018-08-19T10:29:24.442Z,3.23
2018-08-19T10:31:54.320Z,1.90
2018-08-19T10:34:25.021Z,2.37
2018-08-19T10:36:52.717Z,2.37
2018-08-19T10:39:20.240Z,2.17
2018-08-19T10:41:47.892Z,2.20
2018-08-19T10:44:15.551Z,2.20
2018-08-19T10:46:43.392Z,2.80
2018-08-19T10:49:11.336Z,1.77
2018-08-19T10:51:45.600Z,1.70
2018-08-19T10:54:13.951Z,1.63
2018-08-19T10:56:41.548Z,1.80
2018-08-19T10:59:10.471Z,1.90
2018-08-19T11:01:38.025Z,1.87
2018-08-19T11:04:05.606Z,2.20
2018-08-19T11:06:33.127Z,2.57
2018-08-19T11:09:00.593Z,2.30
2018-08-19T11:11:32.330Z,1.97
2018-08-19T11:13:59.928Z,2.30
2018-08-19T11:16:27.427Z,2.17
2018-08-19T11:18:54.972Z,2.20
2018-08-19T11:21:29.016Z,2.50
2018-08-19T11:23:57.512Z,2.43
2018-08-19T11:26:26.131Z,2.00
2018-08-19T11:28:58.770Z,2.17
2018-08-19T11:31:31.935Z,2.10
2018-08-19T11:34:03.108Z,2.77
2018-08-19T11:36:36.829Z,2.37
2018-08-19T11:39:10.865Z,2.93
2018-08-19T11:41:38.462Z,2.53
2018-08-19T11:44:11.765Z,1.83
2018-08-19T11:46:39.343Z,2.10
2018-08-19T11:49:14.176Z,2.40
2018-08-19T11:51:50.644Z,2.90
2018-08-19T11:54:19.150Z,2.40
2018-08-19T11:56:54.377Z,3.47
2018-08-19T11:59:24.205Z,2.50
2018-08-19T12:01:51.652Z,2.63
2018-08-19T12:04:19.284Z,4.33
2018-08-19T12:06:47.056Z,3.07
2018-08-19T12:09:14.561Z,3.00
2018-08-19T12:11:42.065Z,2.70
2018-08-19T12:14:11.618Z,2.00
2018-08-19T12:16:45.838Z,2.30
2018-08-19T12:19:18.977Z,2.70
2018-08-19T12:21:54.722Z,2.90
2018-08-19T12:24:23.008Z,2.67
2018-08-19T12:26:53.073Z,1.77
2018-08-19T12:29:21.247Z,2.00
2018-08-19T12:31:51.079Z,2.20
2018-08-19T12:34:18.621Z,2.30
2018-08-19T12:36:46.109Z,2.00
2018-08-19T12:39:13.914Z,2.10
2018-08-19T12:41:45.748Z,1.70
2018-08-19T12:44:13.332Z,2.30
2018-08-19T12:46:51.158Z,2.47
2018-08-19T12:49:18.669Z,1.80
2018-08-19T12:51:46.220Z,1.60
2018-08-19T12:54:13.772Z,2.00
2018-08-19T12:56:41.250Z,1.87
2018-08-19T12:59:08.802Z,2.67
2018-08-19T13:01:36.333Z,2.20
2018-08-19T13:04:03.813Z,1.60
2018-08-19T13:06:31.392Z,1.80
2018-08-19T13:08:58.886Z,1.90
2018-08-19T13:11:26.592Z,2.50
2018-08-19T13:13:54.794Z,3.23
2018-08-19T13:16:22.438Z,1.57
2018-08-19T13:18:52.556Z,1.70
2018-08-19T13:21:21.217Z,4.20
2018-08-19T13:23:48.719Z,2.17
2018-08-19T13:26:16.323Z,1.77
2018-08-19T13:28:48.421Z,2.40
2018-08-19T13:31:21.388Z,2.43
2018-08-19T13:33:48.829Z,2.30
2018-08-19T13:36:16.390Z,2.73
2018-08-19T13:38:43.997Z,2.20
2018-08-19T13:41:11.710Z,2.10
2018-08-19T13:43:39.276Z,2.93
2018-08-19T13:46:06.907Z,2.80
2018-08-19T13:48:34.576Z,2.13
2018-08-19T13:51:02.338Z,2.00
2018-08-19T13:53:30.079Z,2.37
2018-08-19T13:55:57.810Z,2.20
2018-08-19T13:58:25.346Z,1.97
2018-08-19T14:00:52.890Z,2.57
2018-08-19T14:03:20.424Z,2.00
2018-08-19T14:05:47.920Z,2.53
2018-08-19T14:08:15.520Z,2.03
2018-08-19T14:10:43.144Z,2.17
2018-08-19T14:13:10.727Z,2.20
2018-08-19T14:15:38.337Z,2.23
2018-08-19T14:18:05.974Z,2.50
2018-08-19T14:20:33.621Z,1.90
2018-08-19T14:23:01.239Z,2.20
2018-08-19T14:25:28.827Z,2.03
2018-08-19T14:27:56.918Z,2.30
2018-08-19T14:30:24.740Z,1.90
2018-08-19T14:32:52.221Z,2.20
2018-08-19T14:35:19.760Z,2.10
2018-08-19T14:37:47.264Z,2.73
2018-08-19T14:40:16.620Z,2.53
2018-08-19T14:42:44.322Z,2.33
2018-08-19T14:45:11.953Z,2.50
2018-08-19T14:47:40.262Z,2.43
2018-08-19T14:50:14.424Z,2.00
2018-08-19T14:52:42.105Z,1.90
2018-08-19T14:55:09.717Z,2.10
2018-08-19T14:57:37.345Z,2.10
2018-08-19T15:00:09.514Z,2.67
2018-08-19T15:02:37.813Z,2.30
2018-08-19T15:05:05.966Z,2.43
2018-08-19T15:07:33.625Z,1.70
2018-08-19T15:10:02.007Z,2.80
2018-08-19T15:12:29.552Z,2.43
2018-08-19T15:14:59.767Z,2.20
2018-08-19T15:17:27.311Z,2.37
2018-08-19T15:19:55.850Z,2.97
2018-08-19T15:22:23.511Z,1.80
2018-08-19T15:24:52.385Z,2.47
2018-08-19T15:27:20.070Z,2.23
2018-08-19T15:29:50.842Z,2.20
2018-08-19T15:32:20.712Z,2.00
2018-08-19T15:34:48.012Z,1.80
2018-08-19T15:37:15.617Z,2.13
2018-08-19T15:39:43.232Z,2.17
2018-08-19T15:42:11.060Z,2.10
2018-08-19T15:44:38.723Z,2.00
2018-08-19T15:47:06.496Z,2.10
2018-08-19T15:49:34.070Z,2.33
2018-08-19T15:52:01.600Z,1.93
2018-08-19T15:54:29.296Z,2.80
2018-08-19T15:56:58.812Z,2.20
2018-08-19T15:59:26.688Z,2.87
2018-08-19T16:01:54.260Z,1.80
2018-08-19T16:04:23.254Z,1.80
2018-08-19T16:06:52.025Z,2.30
2018-08-19T16:09:22.325Z,2.17
2018-08-19T16:11:51.511Z,2.47
2018-08-19T16:14:23.507Z,2.00
2018-08-19T16:16:51.545Z,1.77
2018-08-19T16:19:19.396Z,3.20
2018-08-19T16:21:48.268Z,1.97
2018-08-19T16:24:15.831Z,2.27
2018-08-19T16:26:43.556Z,2.70
2018-08-19T16:29:11.116Z,1.90
2018-08-19T16:31:38.750Z,2.00
2018-08-19T16:34:06.271Z,2.30
2018-08-19T16:36:33.889Z,2.20
2018-08-19T16:39:01.568Z,2.13
2018-08-19T16:41:29.318Z,2.43
2018-08-19T16:43:57.914Z,2.20
2018-08-19T16:56:05.716Z,2.50
2018-08-19T16:58:33.185Z,2.60
2018-08-19T17:01:00.652Z,2.90
2018-08-19T17:03:34.415Z,2.70
2018-08-19T17:06:02.316Z,2.57
2018-08-19T17:08:29.995Z,3.17
2018-08-19T17:10:57.601Z,2.70
2018-08-19T17:13:25.231Z,3.33
2018-08-19T17:15:52.804Z,2.50
2018-08-19T17:18:20.443Z,2.93
2018-08-19T17:20:48.869Z,3.03
2018-08-19T17:23:18.876Z,2.70
2018-08-19T17:25:46.853Z,3.47
2018-08-19T17:28:19.041Z,3.00
2018-08-19T17:30:49.848Z,3.47
2018-08-19T17:33:21.723Z,3.37
2018-08-19T17:35:50.392Z,5.47
2018-08-19T17:38:19.984Z,4.30
2018-08-19T17:40:47.897Z,3.90
2018-08-19T17:43:15.398Z,3.50
2018-08-19T17:45:46.007Z,5.00
2018-08-19T17:48:13.564Z,4.10
2018-08-19T17:50:42.353Z,4.27
2018-08-19T17:53:09.926Z,4.90
2018-08-19T17:55:37.531Z,4.60
2018-08-19T17:58:05.660Z,4.87
2018-08-19T18:00:33.315Z,4.60
2018-08-19T18:03:00.868Z,4.70
2018-08-19T18:05:28.506Z,4.60
2018-08-19T18:07:56.207Z,5.00
2018-08-19T18:10:23.817Z,5.50
2018-08-19T18:12:51.951Z,5.30
2018-08-19T18:15:19.723Z,5.23
2018-08-19T18:17:52.458Z,5.87
2018-08-19T18:20:26.962Z,6.13
2018-08-19T18:22:55.769Z,5.70
2018-08-19T18:25:23.749Z,5.67
2018-08-19T18:27:51.396Z,5.57
2018-08-19T18:30:21.864Z,6.27
2018-08-19T18:32:50.062Z,6.27
2018-08-19T18:35:17.981Z,6.10
2018-08-19T18:37:45.776Z,6.60
2018-08-19T18:40:44.487Z,6.73
2018-08-19T18:43:12.113Z,6.23
2018-08-19T18:45:39.770Z,6.90
2018-08-19T18:48:07.441Z,6.67
2018-08-19T18:50:35.032Z,7.17
2018-08-19T18:53:02.619Z,7.60
2018-08-19T18:55:30.160Z,6.33
2018-08-19T18:57:57.787Z,6.60
2018-08-19T19:00:26.252Z,7.50
2018-08-19T19:02:55.149Z,7.40
2018-08-19T19:05:33.050Z,7.20
2018-08-19T19:08:06.749Z,7.37
2018-08-19T19:10:34.745Z,7.00
2018-08-19T19:13:02.675Z,7.67
2018-08-19T19:15:33.441Z,6.70
2018-08-19T19:18:00.931Z,7.03
2018-08-19T19:20:28.577Z,6.60
2018-08-19T19:23:01.629Z,6.30
2018-08-19T19:25:37.878Z,7.30
2018-08-19T19:28:06.073Z,7.57
2018-08-19T19:30:33.729Z,6.60
2018-08-19T19:33:08.681Z,6.43
2018-08-19T19:35:36.597Z,6.53
2018-08-19T19:38:04.891Z,7.60
2018-08-19T19:40:32.569Z,8.73
2018-08-19T19:43:00.633Z,7.10
2018-08-19T19:45:28.404Z,6.80
2018-08-19T19:47:55.992Z,7.20
2018-08-19T19:50:23.585Z,15.47
2018-08-19T19:52:55.696Z,10.10
2018-08-19T19:55:23.503Z,8.50
2018-08-19T19:57:51.820Z,7.37
2018-08-19T20:00:21.084Z,6.90
2018-08-19T20:02:49.450Z,7.60
2018-08-19T20:05:23.446Z,19.37
2018-08-19T20:07:53.453Z,16.47
2018-08-19T20:10:27.745Z,15.97
2018-08-19T20:12:55.370Z,8.60
2018-08-19T20:15:23.039Z,8.30
2018-08-19T20:17:50.672Z,7.30
2018-08-19T20:20:18.312Z,7.20
2018-08-19T20:22:45.863Z,6.93
2018-08-19T20:25:13.514Z,6.97
2018-08-19T20:27:41.109Z,7.53
2018-08-19T20:30:08.528Z,6.83
2018-08-19T20:32:36.201Z,8.20
2018-08-19T20:35:04.133Z,7.10
2018-08-19T20:37:34.161Z,7.63
2018-08-19T20:40:04.265Z,6.80
2018-08-19T20:42:31.808Z,8.90
2018-08-19T20:44:59.344Z,7.70
2018-08-19T20:47:26.898Z,8.10
2018-08-19T20:49:54.449Z,7.27
2018-08-19T20:52:46.712Z,6.87
2018-08-19T20:55:14.511Z,6.00
2018-08-19T20:57:42.178Z,8.17
2018-08-19T21:00:10.020Z,6.90
2018-08-19T21:02:37.631Z,6.70
2018-08-19T21:05:05.557Z,7.90
2018-08-19T21:07:33.359Z,7.83
2018-08-19T21:10:00.856Z,7.50
2018-08-19T21:12:28.414Z,7.07
2018-08-19T21:14:55.998Z,26.80
2018-08-19T21:17:23.529Z,11.30
2018-08-19T21:19:51.424Z,8.70
2018-08-19T21:22:18.956Z,8.43
2018-08-19T21:24:46.485Z,7.00
2018-08-19T21:27:14.042Z,6.10
2018-08-19T21:29:41.601Z,8.03
2018-08-19T21:32:09.110Z,6.97
2018-08-19T21:34:36.572Z,7.30
2018-08-19T21:37:04.123Z,5.93
2018-08-19T21:39:31.745Z,7.17
2018-08-19T21:41:59.326Z,7.47
2018-08-19T21:44:26.811Z,6.27
2018-08-19T21:46:54.212Z,7.37
2018-08-19T21:49:22.768Z,7.00
2018-08-19T21:51:50.216Z,7.07
2018-08-19T21:54:17.696Z,6.70
2018-08-19T21:56:45.242Z,6.20
2018-08-19T21:59:18.325Z,6.30
2018-08-19T22:01:58.625Z,6.60
2018-08-19T22:04:26.628Z,6.57
2018-08-19T22:06:54.361Z,6.77
2018-08-19T22:09:35.959Z,7.00
2018-08-19T22:12:04.799Z,6.80
2018-08-19T22:14:33.539Z,7.10
2018-08-19T22:17:08.838Z,7.23
2018-08-19T22:19:36.785Z,6.93
2018-08-19T22:22:04.462Z,6.80
2018-08-19T22:24:32.169Z,7.70
2018-08-19T22:27:05.254Z,10.00
2018-08-19T22:29:32.751Z,7.50
2018-08-19T22:32:00.334Z,6.80
2018-08-19T22:34:27.940Z,6.50
2018-08-19T22:36:55.493Z,7.10
2018-08-19T22:39:23.155Z,6.47
2018-08-19T22:41:51.446Z,6.50
2018-08-19T22:44:19.052Z,7.20
2018-08-19T22:46:46.586Z,6.90
2018-08-19T22:49:14.958Z,7.00
2018-08-19T22:51:42.712Z,6.63
2018-08-19T22:54:10.325Z,6.47
2018-08-19T22:56:37.965Z,6.30
2018-08-19T22:59:05.551Z,6.60
2018-08-19T23:01:38.816Z,6.60
2018-08-19T23:04:06.364Z,7.50
2018-08-19T23:06:34.063Z,6.90
2018-08-19T23:09:02.100Z,6.97
2018-08-19T23:11:35.767Z,7.20
2018-08-19T23:14:15.122Z,6.10
2018-08-19T23:16:42.785Z,6.90
2018-08-19T23:19:10.332Z,7.60
2018-08-19T23:21:38.041Z,7.50
2018-08-19T23:24:05.723Z,6.47
2018-08-19T23:26:33.365Z,7.00
2018-08-19T23:29:00.979Z,6.43
2018-08-19T23:31:28.551Z,7.20
2018-08-19T23:33:56.221Z,7.07
2018-08-19T23:36:23.961Z,7.33
2018-08-19T23:38:51.483Z,7.63
2018-08-19T23:41:19.033Z,8.27
2018-08-19T23:43:46.542Z,7.40
2018-08-19T23:46:14.093Z,7.70
2018-08-19T23:48:41.737Z,6.63
2018-08-19T23:51:11.328Z,6.60
2018-08-19T23:53:38.910Z,6.90
2018-08-19T23:56:06.512Z,6.30
2018-08-19T23:58:34.181Z,7.20
